sensor_id;sensor_type;location;lat;lon;timestamp;P1;durP1;ratioP1;P2;durP2;ratioP2
24547;SDS011;12713;51.624;4.924;2022-10-31T00:01:19;29.83;;;18.85;;
24547;SDS011;12713;51.624;4.924;2022-10-31T00:03:45;23.83;;;15.75;;
24547;SDS011;12713;51.624;4.924;2022-10-31T00:06:12;26.67;;;16.52;;
24547;SDS011;12713;51.624;4.924;2022-10-31T00:08:38;36.15;;;17.13;;
24547;SDS011;12713;51.624;4.924;2022-10-31T00:11:10;22.95;;;17.52;;
24547;SDS011;12713;51.624;4.924;2022-10-31T00:13:36;28.23;;;17.65;;
24547;SDS011;12713;51.624;4.924;2022-10-31T00:16:02;26.70;;;16.63;;
24547;SDS011;12713;51.624;4.924;2022-10-31T00:18:29;31.52;;;18.70;;
24547;SDS011;12713;51.624;4.924;2022-10-31T00:21:01;24.98;;;17.50;;
24547;SDS011;12713;51.624;4.924;2022-10-31T00:25:54;26.35;;;16.80;;
24547;SDS011;12713;51.624;4.924;2022-10-31T00:28:20;25.70;;;16.42;;
24547;SDS011;12713;51.624;4.924;2022-10-31T00:30:46;23.88;;;15.18;;
24547;SDS011;12713;51.624;4.924;2022-10-31T00:33:12;24.77;;;16.10;;
24547;SDS011;12713;51.624;4.924;2022-10-31T00:35:40;24.00;;;15.02;;
24547;SDS011;12713;51.624;4.924;2022-10-31T00:38:07;26.48;;;16.00;;
24547;SDS011;12713;51.624;4.924;2022-10-31T00:40:33;24.75;;;15.88;;
24547;SDS011;12713;51.624;4.924;2022-10-31T00:42:59;26.60;;;16.65;;
24547;SDS011;12713;51.624;4.924;2022-10-31T00:45:24;20.58;;;15.05;;
24547;SDS011;12713;51.624;4.924;2022-10-31T00:47:50;21.45;;;13.73;;
24547;SDS011;12713;51.624;4.924;2022-10-31T00:50:20;26.50;;;14.88;;
24547;SDS011;12713;51.624;4.924;2022-10-31T00:52:46;22.20;;;14.02;;
24547;SDS011;12713;51.624;4.924;2022-10-31T00:55:12;19.17;;;14.57;;
24547;SDS011;12713;51.624;4.924;2022-10-31T00:57:38;21.50;;;14.02;;
24547;SDS011;12713;51.624;4.924;2022-10-31T01:00:04;23.20;;;15.50;;
24547;SDS011;12713;51.624;4.924;2022-10-31T01:02:30;29.13;;;16.52;;
24547;SDS011;12713;51.624;4.924;2022-10-31T01:04:56;24.55;;;14.93;;
24547;SDS011;12713;51.624;4.924;2022-10-31T01:07:22;20.85;;;14.18;;
24547;SDS011;12713;51.624;4.924;2022-10-31T01:09:48;22.05;;;13.85;;
24547;SDS011;12713;51.624;4.924;2022-10-31T01:12:14;22.60;;;13.90;;
24547;SDS011;12713;51.624;4.924;2022-10-31T01:14:43;22.50;;;13.38;;
24547;SDS011;12713;51.624;4.924;2022-10-31T01:17:10;25.08;;;13.95;;
24547;SDS011;12713;51.624;4.924;2022-10-31T01:19:36;22.30;;;17.40;;
24547;SDS011;12713;51.624;4.924;2022-10-31T01:22:05;23.73;;;15.50;;
24547;SDS011;12713;51.624;4.924;2022-10-31T01:24:31;22.40;;;14.48;;
24547;SDS011;12713;51.624;4.924;2022-10-31T01:26:57;23.15;;;15.10;;
24547;SDS011;12713;51.624;4.924;2022-10-31T01:29:23;26.92;;;15.45;;
24547;SDS011;12713;51.624;4.924;2022-10-31T01:31:49;23.80;;;14.35;;
24547;SDS011;12713;51.624;4.924;2022-10-31T01:34:15;21.15;;;15.23;;
24547;SDS011;12713;51.624;4.924;2022-10-31T01:36:42;27.00;;;16.30;;
24547;SDS011;12713;51.624;4.924;2022-10-31T01:39:11;22.33;;;16.13;;
24547;SDS011;12713;51.624;4.924;2022-10-31T01:41:38;21.25;;;14.60;;
24547;SDS011;12713;51.624;4.924;2022-10-31T01:46:44;25.10;;;15.30;;
24547;SDS011;12713;51.624;4.924;2022-10-31T01:49:14;26.15;;;15.02;;
24547;SDS011;12713;51.624;4.924;2022-10-31T01:51:45;21.20;;;14.52;;
24547;SDS011;12713;51.624;4.924;2022-10-31T01:54:12;19.75;;;13.80;;
24547;SDS011;12713;51.624;4.924;2022-10-31T01:56:41;22.83;;;14.95;;
24547;SDS011;12713;51.624;4.924;2022-10-31T01:59:08;20.85;;;15.35;;
24547;SDS011;12713;51.624;4.924;2022-10-31T02:01:36;22.85;;;14.05;;
24547;SDS011;12713;51.624;4.924;2022-10-31T02:04:03;24.77;;;16.45;;
24547;SDS011;12713;51.624;4.924;2022-10-31T02:06:32;24.52;;;15.25;;
24547;SDS011;12713;51.624;4.924;2022-10-31T02:08:59;21.40;;;13.82;;
24547;SDS011;12713;51.624;4.924;2022-10-31T02:11:27;23.60;;;15.35;;
24547;SDS011;12713;51.624;4.924;2022-10-31T02:13:54;25.17;;;14.95;;
24547;SDS011;12713;51.624;4.924;2022-10-31T02:16:20;23.33;;;14.90;;
24547;SDS011;12713;51.624;4.924;2022-10-31T02:18:46;20.67;;;14.30;;
24547;SDS011;12713;51.624;4.924;2022-10-31T02:21:17;20.67;;;14.35;;
24547;SDS011;12713;51.624;4.924;2022-10-31T02:26:41;24.35;;;15.18;;
24547;SDS011;12713;51.624;4.924;2022-10-31T02:39:28;22.48;;;15.98;;
24547;SDS011;12713;51.624;4.924;2022-10-31T02:44:29;19.77;;;13.85;;
24547;SDS011;12713;51.624;4.924;2022-10-31T02:46:57;19.45;;;14.45;;
24547;SDS011;12713;51.624;4.924;2022-10-31T02:49:34;20.27;;;13.75;;
24547;SDS011;12713;51.624;4.924;2022-10-31T02:52:01;21.20;;;12.20;;
24547;SDS011;12713;51.624;4.924;2022-10-31T02:54:27;20.17;;;13.43;;
24547;SDS011;12713;51.624;4.924;2022-10-31T02:56:58;20.80;;;13.63;;
24547;SDS011;12713;51.624;4.924;2022-10-31T02:59:26;19.48;;;14.15;;
24547;SDS011;12713;51.624;4.924;2022-10-31T03:07:00;17.80;;;14.43;;
24547;SDS011;12713;51.624;4.924;2022-10-31T03:09:51;22.30;;;15.65;;
24547;SDS011;12713;51.624;4.924;2022-10-31T03:15:17;18.45;;;13.52;;
24547;SDS011;12713;51.624;4.924;2022-10-31T03:20:11;17.23;;;13.23;;
24547;SDS011;12713;51.624;4.924;2022-10-31T03:22:37;23.83;;;14.73;;
24547;SDS011;12713;51.624;4.924;2022-10-31T03:25:05;19.45;;;14.00;;
24547;SDS011;12713;51.624;4.924;2022-10-31T03:27:32;19.60;;;14.05;;
24547;SDS011;12713;51.624;4.924;2022-10-31T03:30:00;17.60;;;13.00;;
24547;SDS011;12713;51.624;4.924;2022-10-31T03:34:57;18.52;;;12.80;;
24547;SDS011;12713;51.624;4.924;2022-10-31T03:37:24;21.00;;;14.27;;
24547;SDS011;12713;51.624;4.924;2022-10-31T03:39:51;23.27;;;14.38;;
24547;SDS011;12713;51.624;4.924;2022-10-31T03:42:18;20.92;;;13.85;;
24547;SDS011;12713;51.624;4.924;2022-10-31T03:44:47;17.88;;;13.50;;
24547;SDS011;12713;51.624;4.924;2022-10-31T03:47:14;23.73;;;15.07;;
24547;SDS011;12713;51.624;4.924;2022-10-31T03:49:40;23.23;;;15.57;;
24547;SDS011;12713;51.624;4.924;2022-10-31T03:54:42;24.13;;;15.82;;
24547;SDS011;12713;51.624;4.924;2022-10-31T04:00:09;22.15;;;16.33;;
24547;SDS011;12713;51.624;4.924;2022-10-31T04:02:37;24.73;;;16.35;;
24547;SDS011;12713;51.624;4.924;2022-10-31T04:05:04;19.67;;;14.45;;
24547;SDS011;12713;51.624;4.924;2022-10-31T04:07:32;18.40;;;13.13;;
24547;SDS011;12713;51.624;4.924;2022-10-31T04:10:00;23.33;;;15.25;;
24547;SDS011;12713;51.624;4.924;2022-10-31T04:12:27;19.85;;;14.65;;
24547;SDS011;12713;51.624;4.924;2022-10-31T04:14:55;20.17;;;14.18;;
24547;SDS011;12713;51.624;4.924;2022-10-31T04:17:22;20.80;;;13.90;;
24547;SDS011;12713;51.624;4.924;2022-10-31T04:19:48;21.35;;;16.17;;
24547;SDS011;12713;51.624;4.924;2022-10-31T04:22:14;22.73;;;15.55;;
24547;SDS011;12713;51.624;4.924;2022-10-31T04:24:40;23.08;;;15.00;;
24547;SDS011;12713;51.624;4.924;2022-10-31T04:27:06;21.80;;;15.02;;
24547;SDS011;12713;51.624;4.924;2022-10-31T04:29:32;22.90;;;16.67;;
24547;SDS011;12713;51.624;4.924;2022-10-31T04:31:58;21.40;;;16.10;;
24547;SDS011;12713;51.624;4.924;2022-10-31T04:34:24;20.50;;;14.80;;
24547;SDS011;12713;51.624;4.924;2022-10-31T04:36:50;27.80;;;16.10;;
24547;SDS011;12713;51.624;4.924;2022-10-31T04:39:16;21.98;;;14.93;;
24547;SDS011;12713;51.624;4.924;2022-10-31T04:41:42;25.73;;;15.73;;
24547;SDS011;12713;51.624;4.924;2022-10-31T04:44:08;23.15;;;14.23;;
24547;SDS011;12713;51.624;4.924;2022-10-31T04:46:34;23.92;;;14.70;;
24547;SDS011;12713;51.624;4.924;2022-10-31T04:49:00;25.95;;;17.27;;
24547;SDS011;12713;51.624;4.924;2022-10-31T04:51:26;26.75;;;16.83;;
24547;SDS011;12713;51.624;4.924;2022-10-31T04:53:52;25.65;;;17.40;;
24547;SDS011;12713;51.624;4.924;2022-10-31T04:56:18;22.55;;;15.85;;
24547;SDS011;12713;51.624;4.924;2022-10-31T04:58:44;29.77;;;20.10;;
24547;SDS011;12713;51.624;4.924;2022-10-31T05:01:10;30.08;;;18.63;;
24547;SDS011;12713;51.624;4.924;2022-10-31T05:03:36;31.45;;;19.05;;
24547;SDS011;12713;51.624;4.924;2022-10-31T05:06:04;30.83;;;18.63;;
24547;SDS011;12713;51.624;4.924;2022-10-31T05:08:30;24.13;;;16.63;;
24547;SDS011;12713;51.624;4.924;2022-10-31T05:10:59;24.52;;;18.48;;
24547;SDS011;12713;51.624;4.924;2022-10-31T05:13:25;22.30;;;15.88;;
24547;SDS011;12713;51.624;4.924;2022-10-31T05:15:51;19.25;;;14.40;;
24547;SDS011;12713;51.624;4.924;2022-10-31T05:18:17;23.30;;;17.67;;
24547;SDS011;12713;51.624;4.924;2022-10-31T05:20:43;23.15;;;15.85;;
24547;SDS011;12713;51.624;4.924;2022-10-31T05:23:09;23.30;;;15.50;;
24547;SDS011;12713;51.624;4.924;2022-10-31T05:25:35;23.80;;;14.63;;
24547;SDS011;12713;51.624;4.924;2022-10-31T05:28:01;28.75;;;16.40;;
24547;SDS011;12713;51.624;4.924;2022-10-31T05:30:28;23.42;;;14.05;;
24547;SDS011;12713;51.624;4.924;2022-10-31T05:32:55;26.83;;;16.60;;
24547;SDS011;12713;51.624;4.924;2022-10-31T05:35:23;30.27;;;17.98;;
24547;SDS011;12713;51.624;4.924;2022-10-31T05:38:04;30.08;;;17.75;;
24547;SDS011;12713;51.624;4.924;2022-10-31T05:40:30;24.95;;;16.70;;
24547;SDS011;12713;51.624;4.924;2022-10-31T05:42:56;25.70;;;16.83;;
24547;SDS011;12713;51.624;4.924;2022-10-31T05:45:25;23.33;;;14.77;;
24547;SDS011;12713;51.624;4.924;2022-10-31T05:47:52;30.42;;;17.15;;
24547;SDS011;12713;51.624;4.924;2022-10-31T05:50:18;23.17;;;15.07;;
24547;SDS011;12713;51.624;4.924;2022-10-31T05:52:45;30.15;;;18.10;;
24547;SDS011;12713;51.624;4.924;2022-10-31T05:55:11;30.52;;;18.45;;
24547;SDS011;12713;51.624;4.924;2022-10-31T05:57:37;32.03;;;20.17;;
24547;SDS011;12713;51.624;4.924;2022-10-31T06:00:03;41.70;;;20.95;;
24547;SDS011;12713;51.624;4.924;2022-10-31T06:02:30;26.45;;;19.02;;
24547;SDS011;12713;51.624;4.924;2022-10-31T06:04:59;33.78;;;20.67;;
24547;SDS011;12713;51.624;4.924;2022-10-31T06:07:25;32.53;;;20.27;;
24547;SDS011;12713;51.624;4.924;2022-10-31T06:09:54;26.63;;;17.73;;
24547;SDS011;12713;51.624;4.924;2022-10-31T06:12:20;27.35;;;18.02;;
24547;SDS011;12713;51.624;4.924;2022-10-31T06:14:46;25.40;;;17.58;;
24547;SDS011;12713;51.624;4.924;2022-10-31T06:17:12;27.20;;;16.17;;
24547;SDS011;12713;51.624;4.924;2022-10-31T06:19:38;27.98;;;16.65;;
24547;SDS011;12713;51.624;4.924;2022-10-31T06:22:04;26.10;;;17.17;;
24547;SDS011;12713;51.624;4.924;2022-10-31T06:24:30;23.98;;;15.88;;
24547;SDS011;12713;51.624;4.924;2022-10-31T06:26:56;26.60;;;17.83;;
24547;SDS011;12713;51.624;4.924;2022-10-31T06:29:23;26.50;;;16.52;;
24547;SDS011;12713;51.624;4.924;2022-10-31T06:31:52;24.88;;;15.65;;
24547;SDS011;12713;51.624;4.924;2022-10-31T06:34:18;31.35;;;19.67;;
24547;SDS011;12713;51.624;4.924;2022-10-31T06:36:45;35.70;;;19.77;;
24547;SDS011;12713;51.624;4.924;2022-10-31T06:39:11;24.67;;;15.88;;
24547;SDS011;12713;51.624;4.924;2022-10-31T06:41:37;29.35;;;18.98;;
24547;SDS011;12713;51.624;4.924;2022-10-31T06:44:05;26.42;;;17.63;;
24547;SDS011;12713;51.624;4.924;2022-10-31T06:46:31;32.22;;;21.25;;
24547;SDS011;12713;51.624;4.924;2022-10-31T06:48:57;27.90;;;16.88;;
24547;SDS011;12713;51.624;4.924;2022-10-31T06:51:23;26.13;;;18.38;;
24547;SDS011;12713;51.624;4.924;2022-10-31T06:53:49;40.55;;;18.30;;
24547;SDS011;12713;51.624;4.924;2022-10-31T06:56:15;31.85;;;19.08;;
24547;SDS011;12713;51.624;4.924;2022-10-31T06:58:41;31.92;;;20.60;;
24547;SDS011;12713;51.624;4.924;2022-10-31T07:01:07;31.35;;;19.25;;
24547;SDS011;12713;51.624;4.924;2022-10-31T07:03:33;40.25;;;22.65;;
24547;SDS011;12713;51.624;4.924;2022-10-31T07:05:59;42.30;;;23.00;;
24547;SDS011;12713;51.624;4.924;2022-10-31T07:08:25;42.38;;;25.67;;
24547;SDS011;12713;51.624;4.924;2022-10-31T07:10:52;39.65;;;23.92;;
24547;SDS011;12713;51.624;4.924;2022-10-31T07:13:18;41.42;;;24.52;;
24547;SDS011;12713;51.624;4.924;2022-10-31T07:15:49;43.05;;;26.55;;
24547;SDS011;12713;51.624;4.924;2022-10-31T07:18:15;35.50;;;22.13;;
24547;SDS011;12713;51.624;4.924;2022-10-31T07:20:41;31.25;;;18.50;;
24547;SDS011;12713;51.624;4.924;2022-10-31T07:23:08;31.40;;;21.90;;
24547;SDS011;12713;51.624;4.924;2022-10-31T07:25:35;38.13;;;23.45;;
24547;SDS011;12713;51.624;4.924;2022-10-31T07:28:01;26.27;;;16.90;;
24547;SDS011;12713;51.624;4.924;2022-10-31T07:30:27;42.70;;;25.35;;
24547;SDS011;12713;51.624;4.924;2022-10-31T07:32:53;37.70;;;24.30;;
24547;SDS011;12713;51.624;4.924;2022-10-31T07:35:24;33.70;;;18.02;;
24547;SDS011;12713;51.624;4.924;2022-10-31T07:37:50;44.67;;;25.80;;
24547;SDS011;12713;51.624;4.924;2022-10-31T07:40:16;35.78;;;23.88;;
24547;SDS011;12713;51.624;4.924;2022-10-31T07:42:43;38.90;;;25.60;;
24547;SDS011;12713;51.624;4.924;2022-10-31T07:45:10;38.78;;;26.15;;
24547;SDS011;12713;51.624;4.924;2022-10-31T07:47:40;45.35;;;28.08;;
24547;SDS011;12713;51.624;4.924;2022-10-31T07:50:07;45.42;;;26.42;;
24547;SDS011;12713;51.624;4.924;2022-10-31T07:52:33;54.55;;;27.67;;
24547;SDS011;12713;51.624;4.924;2022-10-31T07:54:59;52.63;;;28.20;;
24547;SDS011;12713;51.624;4.924;2022-10-31T07:57:25;46.90;;;28.48;;
24547;SDS011;12713;51.624;4.924;2022-10-31T07:59:51;44.08;;;27.88;;
24547;SDS011;12713;51.624;4.924;2022-10-31T08:02:17;51.97;;;28.90;;
24547;SDS011;12713;51.624;4.924;2022-10-31T08:04:43;48.75;;;30.20;;
24547;SDS011;12713;51.624;4.924;2022-10-31T08:07:09;45.80;;;28.77;;
24547;SDS011;12713;51.624;4.924;2022-10-31T08:09:35;47.00;;;28.42;;
24547;SDS011;12713;51.624;4.924;2022-10-31T08:12:01;48.97;;;29.00;;
24547;SDS011;12713;51.624;4.924;2022-10-31T08:14:27;53.70;;;28.98;;
24547;SDS011;12713;51.624;4.924;2022-10-31T08:16:53;53.47;;;29.17;;
24547;SDS011;12713;51.624;4.924;2022-10-31T08:19:19;46.33;;;28.10;;
24547;SDS011;12713;51.624;4.924;2022-10-31T08:21:45;43.38;;;28.02;;
24547;SDS011;12713;51.624;4.924;2022-10-31T08:24:11;38.10;;;24.58;;
24547;SDS011;12713;51.624;4.924;2022-10-31T08:26:37;48.30;;;27.95;;
24547;SDS011;12713;51.624;4.924;2022-10-31T08:29:03;46.80;;;28.20;;
24547;SDS011;12713;51.624;4.924;2022-10-31T08:31:29;43.58;;;28.38;;
24547;SDS011;12713;51.624;4.924;2022-10-31T08:33:55;45.70;;;28.83;;
24547;SDS011;12713;51.624;4.924;2022-10-31T08:36:21;52.83;;;28.52;;
24547;SDS011;12713;51.624;4.924;2022-10-31T08:38:47;47.60;;;29.08;;
24547;SDS011;12713;51.624;4.924;2022-10-31T08:41:14;49.67;;;28.70;;
24547;SDS011;12713;51.624;4.924;2022-10-31T08:43:40;45.08;;;27.77;;
24547;SDS011;12713;51.624;4.924;2022-10-31T08:46:06;33.90;;;22.40;;
24547;SDS011;12713;51.624;4.924;2022-10-31T08:48:32;40.60;;;26.52;;
24547;SDS011;12713;51.624;4.924;2022-10-31T08:50:59;45.00;;;29.42;;
24547;SDS011;12713;51.624;4.924;2022-10-31T08:53:25;42.58;;;26.75;;
24547;SDS011;12713;51.624;4.924;2022-10-31T08:55:53;42.92;;;28.42;;
24547;SDS011;12713;51.624;4.924;2022-10-31T08:58:20;44.17;;;28.10;;
24547;SDS011;12713;51.624;4.924;2022-10-31T09:00:53;42.22;;;25.98;;
24547;SDS011;12713;51.624;4.924;2022-10-31T09:03:21;39.53;;;25.98;;
24547;SDS011;12713;51.624;4.924;2022-10-31T09:05:47;41.38;;;26.23;;
24547;SDS011;12713;51.624;4.924;2022-10-31T09:08:13;46.33;;;24.90;;
24547;SDS011;12713;51.624;4.924;2022-10-31T09:10:40;38.78;;;25.30;;
24547;SDS011;12713;51.624;4.924;2022-10-31T09:13:16;38.75;;;23.90;;
24547;SDS011;12713;51.624;4.924;2022-10-31T09:15:43;40.67;;;25.30;;
24547;SDS011;12713;51.624;4.924;2022-10-31T09:18:10;42.30;;;26.45;;
24547;SDS011;12713;51.624;4.924;2022-10-31T09:20:36;41.10;;;24.38;;
24547;SDS011;12713;51.624;4.924;2022-10-31T09:23:04;36.03;;;23.88;;
24547;SDS011;12713;51.624;4.924;2022-10-31T09:25:31;40.65;;;24.92;;
24547;SDS011;12713;51.624;4.924;2022-10-31T09:27:58;33.90;;;22.73;;
24547;SDS011;12713;51.624;4.924;2022-10-31T09:30:24;36.80;;;23.20;;
24547;SDS011;12713;51.624;4.924;2022-10-31T09:32:57;34.88;;;21.58;;
24547;SDS011;12713;51.624;4.924;2022-10-31T09:35:23;36.00;;;23.05;;
24547;SDS011;12713;51.624;4.924;2022-10-31T09:38:03;34.75;;;23.00;;
24547;SDS011;12713;51.624;4.924;2022-10-31T09:40:34;31.70;;;21.73;;
24547;SDS011;12713;51.624;4.924;2022-10-31T09:43:07;34.35;;;23.58;;
24547;SDS011;12713;51.624;4.924;2022-10-31T09:50:40;35.90;;;24.02;;
24547;SDS011;12713;51.624;4.924;2022-10-31T09:55:44;39.83;;;24.80;;
24547;SDS011;12713;51.624;4.924;2022-10-31T09:58:13;40.83;;;25.30;;
24547;SDS011;12713;51.624;4.924;2022-10-31T10:00:41;44.20;;;25.75;;
24547;SDS011;12713;51.624;4.924;2022-10-31T10:05:49;38.67;;;24.30;;
24547;SDS011;12713;51.624;4.924;2022-10-31T10:08:22;49.42;;;29.00;;
24547;SDS011;12713;51.624;4.924;2022-10-31T10:11:13;43.13;;;27.23;;
24547;SDS011;12713;51.624;4.924;2022-10-31T10:19:01;46.33;;;29.23;;
24547;SDS011;12713;51.624;4.924;2022-10-31T10:24:11;49.92;;;30.52;;
24547;SDS011;12713;51.624;4.924;2022-10-31T10:26:43;50.90;;;30.50;;
24547;SDS011;12713;51.624;4.924;2022-10-31T10:31:57;52.45;;;31.00;;
24547;SDS011;12713;51.624;4.924;2022-10-31T10:34:29;56.55;;;30.88;;
24547;SDS011;12713;51.624;4.924;2022-10-31T10:39:25;52.70;;;31.35;;
24547;SDS011;12713;51.624;4.924;2022-10-31T10:41:52;60.17;;;33.60;;
24547;SDS011;12713;51.624;4.924;2022-10-31T10:44:37;62.08;;;32.88;;
24547;SDS011;12713;51.624;4.924;2022-10-31T10:47:22;56.53;;;35.60;;
24547;SDS011;12713;51.624;4.924;2022-10-31T10:50:14;58.17;;;36.00;;
24547;SDS011;12713;51.624;4.924;2022-10-31T10:52:44;54.65;;;33.47;;
24547;SDS011;12713;51.624;4.924;2022-10-31T10:55:19;57.63;;;34.97;;
24547;SDS011;12713;51.624;4.924;2022-10-31T10:58:01;64.95;;;35.35;;
24547;SDS011;12713;51.624;4.924;2022-10-31T11:00:32;58.00;;;34.60;;
24547;SDS011;12713;51.624;4.924;2022-10-31T11:02:58;60.00;;;34.10;;
24547;SDS011;12713;51.624;4.924;2022-10-31T11:06:15;56.90;;;36.08;;
24547;SDS011;12713;51.624;4.924;2022-10-31T11:08:27;66.65;;;38.00;;
24547;SDS011;12713;51.624;4.924;2022-10-31T11:11:35;65.60;;;36.15;;
24547;SDS011;12713;51.624;4.924;2022-10-31T11:13:44;64.35;;;38.15;;
24547;SDS011;12713;51.624;4.924;2022-10-31T11:16:11;69.78;;;39.30;;
24547;SDS011;12713;51.624;4.924;2022-10-31T11:18:43;71.47;;;39.58;;
24547;SDS011;12713;51.624;4.924;2022-10-31T11:21:27;74.90;;;40.55;;
24547;SDS011;12713;51.624;4.924;2022-10-31T11:26:35;71.93;;;40.58;;
24547;SDS011;12713;51.624;4.924;2022-10-31T11:29:03;75.45;;;41.35;;
24547;SDS011;12713;51.624;4.924;2022-10-31T11:31:30;72.57;;;39.75;;
24547;SDS011;12713;51.624;4.924;2022-10-31T11:34:04;72.30;;;39.53;;
24547;SDS011;12713;51.624;4.924;2022-10-31T11:36:32;76.75;;;43.00;;
24547;SDS011;12713;51.624;4.924;2022-10-31T11:38:59;77.43;;;40.25;;
24547;SDS011;12713;51.624;4.924;2022-10-31T11:41:27;72.65;;;40.17;;
24547;SDS011;12713;51.624;4.924;2022-10-31T11:43:58;67.07;;;39.97;;
24547;SDS011;12713;51.624;4.924;2022-10-31T11:48:54;71.05;;;40.90;;
24547;SDS011;12713;51.624;4.924;2022-10-31T11:51:29;67.30;;;38.83;;
24547;SDS011;12713;51.624;4.924;2022-10-31T11:53:59;74.45;;;39.17;;
24547;SDS011;12713;51.624;4.924;2022-10-31T11:56:39;76.53;;;39.10;;
24547;SDS011;12713;51.624;4.924;2022-10-31T11:59:12;71.97;;;40.05;;
24547;SDS011;12713;51.624;4.924;2022-10-31T12:01:40;67.05;;;38.92;;
24547;SDS011;12713;51.624;4.924;2022-10-31T12:04:12;72.22;;;39.40;;
24547;SDS011;12713;51.624;4.924;2022-10-31T12:06:42;69.20;;;38.00;;
24547;SDS011;12713;51.624;4.924;2022-10-31T12:11:46;72.67;;;38.67;;
24547;SDS011;12713;51.624;4.924;2022-10-31T12:20:16;68.55;;;39.97;;
24547;SDS011;12713;51.624;4.924;2022-10-31T12:22:08;75.53;;;39.33;;
24547;SDS011;12713;51.624;4.924;2022-10-31T12:42:40;73.80;;;37.10;;
24547;SDS011;12713;51.624;4.924;2022-10-31T12:50:27;70.57;;;39.42;;
24547;SDS011;12713;51.624;4.924;2022-10-31T12:53:17;68.68;;;37.00;;
24547;SDS011;12713;51.624;4.924;2022-10-31T12:58:35;70.07;;;38.33;;
24547;SDS011;12713;51.624;4.924;2022-10-31T13:01:15;69.35;;;39.45;;
24547;SDS011;12713;51.624;4.924;2022-10-31T13:03:53;57.45;;;36.42;;
24547;SDS011;12713;51.624;4.924;2022-10-31T13:06:27;61.78;;;36.60;;
24547;SDS011;12713;51.624;4.924;2022-10-31T13:09:06;63.75;;;37.83;;
24547;SDS011;12713;51.624;4.924;2022-10-31T13:11:37;62.80;;;37.20;;
24547;SDS011;12713;51.624;4.924;2022-10-31T13:16:36;61.30;;;37.70;;
24547;SDS011;12713;51.624;4.924;2022-10-31T13:21:38;66.63;;;36.42;;
24547;SDS011;12713;51.624;4.924;2022-10-31T13:24:13;65.35;;;36.28;;
24547;SDS011;12713;51.624;4.924;2022-10-31T13:26:47;56.20;;;37.10;;
24547;SDS011;12713;51.624;4.924;2022-10-31T13:29:17;61.05;;;36.78;;
24547;SDS011;12713;51.624;4.924;2022-10-31T13:31:47;63.38;;;36.72;;
24547;SDS011;12713;51.624;4.924;2022-10-31T13:39:49;68.05;;;35.60;;
24547;SDS011;12713;51.624;4.924;2022-10-31T13:42:59;59.53;;;35.35;;
24547;SDS011;12713;51.624;4.924;2022-10-31T13:45:18;57.15;;;33.85;;
24547;SDS011;12713;51.624;4.924;2022-10-31T13:47:55;59.92;;;36.65;;
24547;SDS011;12713;51.624;4.924;2022-10-31T13:50:24;57.38;;;34.60;;
24547;SDS011;12713;51.624;4.924;2022-10-31T13:53:18;55.03;;;33.58;;
24547;SDS011;12713;51.624;4.924;2022-10-31T13:55:48;51.58;;;32.88;;
24547;SDS011;12713;51.624;4.924;2022-10-31T14:01:10;62.47;;;34.45;;
24547;SDS011;12713;51.624;4.924;2022-10-31T14:06:04;52.17;;;30.77;;
24547;SDS011;12713;51.624;4.924;2022-10-31T14:08:33;49.25;;;31.35;;
24547;SDS011;12713;51.624;4.924;2022-10-31T14:11:00;54.00;;;33.70;;
24547;SDS011;12713;51.624;4.924;2022-10-31T14:13:33;51.55;;;31.67;;
24547;SDS011;12713;51.624;4.924;2022-10-31T14:16:06;54.15;;;30.70;;
24547;SDS011;12713;51.624;4.924;2022-10-31T14:18:41;51.78;;;30.50;;
24547;SDS011;12713;51.624;4.924;2022-10-31T14:23:51;54.83;;;30.77;;
24547;SDS011;12713;51.624;4.924;2022-10-31T14:28:44;52.05;;;32.30;;
24547;SDS011;12713;51.624;4.924;2022-10-31T14:33:58;54.80;;;31.15;;
24547;SDS011;12713;51.624;4.924;2022-10-31T14:50:24;47.08;;;27.75;;
24547;SDS011;12713;51.624;4.924;2022-10-31T14:52:54;43.65;;;26.00;;
24547;SDS011;12713;51.624;4.924;2022-10-31T14:55:23;47.75;;;29.15;;
24547;SDS011;12713;51.624;4.924;2022-10-31T14:57:54;48.55;;;27.95;;
24547;SDS011;12713;51.624;4.924;2022-10-31T15:00:20;47.58;;;28.15;;
24547;SDS011;12713;51.624;4.924;2022-10-31T15:03:00;49.10;;;27.75;;
24547;SDS011;12713;51.624;4.924;2022-10-31T15:05:30;46.88;;;26.98;;
24547;SDS011;12713;51.624;4.924;2022-10-31T15:07:58;37.33;;;25.70;;
24547;SDS011;12713;51.624;4.924;2022-10-31T15:10:31;46.28;;;26.88;;
24547;SDS011;12713;51.624;4.924;2022-10-31T15:13:17;47.50;;;26.73;;
24547;SDS011;12713;51.624;4.924;2022-10-31T15:15:48;43.80;;;24.92;;
24547;SDS011;12713;51.624;4.924;2022-10-31T15:18:23;37.03;;;25.58;;
24547;SDS011;12713;51.624;4.924;2022-10-31T15:20:55;46.78;;;24.48;;
24547;SDS011;12713;51.624;4.924;2022-10-31T15:23:26;38.65;;;23.80;;
24547;SDS011;12713;51.624;4.924;2022-10-31T15:26:02;39.75;;;23.88;;
24547;SDS011;12713;51.624;4.924;2022-10-31T15:28:29;35.17;;;22.10;;
24547;SDS011;12713;51.624;4.924;2022-10-31T15:30:58;38.70;;;23.08;;
24547;SDS011;12713;51.624;4.924;2022-10-31T15:33:25;36.47;;;22.58;;
24547;SDS011;12713;51.624;4.924;2022-10-31T15:35:57;39.90;;;22.65;;
24547;SDS011;12713;51.624;4.924;2022-10-31T15:38:24;39.55;;;23.80;;
24547;SDS011;12713;51.624;4.924;2022-10-31T15:40:51;36.45;;;22.50;;
24547;SDS011;12713;51.624;4.924;2022-10-31T15:43:21;44.13;;;22.65;;
24547;SDS011;12713;51.624;4.924;2022-10-31T15:45:53;38.90;;;22.70;;
24547;SDS011;12713;51.624;4.924;2022-10-31T15:48:23;36.95;;;22.45;;
24547;SDS011;12713;51.624;4.924;2022-10-31T15:50:51;35.05;;;21.90;;
24547;SDS011;12713;51.624;4.924;2022-10-31T15:56:06;36.08;;;21.73;;
24547;SDS011;12713;51.624;4.924;2022-10-31T15:58:39;34.08;;;20.63;;
24547;SDS011;12713;51.624;4.924;2022-10-31T16:01:19;42.60;;;22.73;;
24547;SDS011;12713;51.624;4.924;2022-10-31T16:06:31;33.65;;;19.08;;
24547;SDS011;12713;51.624;4.924;2022-10-31T16:08:58;34.40;;;17.40;;
24547;SDS011;12713;51.624;4.924;2022-10-31T16:13:54;35.28;;;17.52;;
24547;SDS011;12713;51.624;4.924;2022-10-31T16:16:21;31.95;;;16.20;;
24547;SDS011;12713;51.624;4.924;2022-10-31T16:18:48;27.15;;;16.50;;
24547;SDS011;12713;51.624;4.924;2022-10-31T16:21:15;26.48;;;16.60;;
24547;SDS011;12713;51.624;4.924;2022-10-31T16:23:46;27.50;;;16.88;;
24547;SDS011;12713;51.624;4.924;2022-10-31T16:26:15;28.40;;;16.92;;
24547;SDS011;12713;51.624;4.924;2022-10-31T16:28:50;23.42;;;15.57;;
24547;SDS011;12713;51.624;4.924;2022-10-31T16:31:24;28.25;;;17.60;;
24547;SDS011;12713;51.624;4.924;2022-10-31T16:34:01;31.92;;;16.55;;
24547;SDS011;12713;51.624;4.924;2022-10-31T16:38:59;31.13;;;18.13;;
24547;SDS011;12713;51.624;4.924;2022-10-31T16:41:25;34.25;;;17.20;;
24547;SDS011;12713;51.624;4.924;2022-10-31T16:43:52;25.45;;;16.65;;
24547;SDS011;12713;51.624;4.924;2022-10-31T16:52:26;33.83;;;18.90;;
24547;SDS011;12713;51.624;4.924;2022-10-31T16:54:58;31.00;;;16.80;;
24547;SDS011;12713;51.624;4.924;2022-10-31T16:57:36;26.60;;;16.50;;
24547;SDS011;12713;51.624;4.924;2022-10-31T17:00:02;29.80;;;16.33;;
24547;SDS011;12713;51.624;4.924;2022-10-31T17:02:28;23.17;;;14.68;;
24547;SDS011;12713;51.624;4.924;2022-10-31T17:04:54;34.65;;;17.00;;
24547;SDS011;12713;51.624;4.924;2022-10-31T17:07:20;33.15;;;17.73;;